createdAt,value
2023-05-14T00:00:54.158Z,0.00
2023-05-14T00:01:54.139Z,0.00
2023-05-14T00:02:54.175Z,0.00
2023-05-14T00:03:54.293Z,0.00
2023-05-14T00:04:54.114Z,0.00
2023-05-14T00:05:54.101Z,0.00
2023-05-14T00:06:54.079Z,0.00
2023-05-14T00:07:54.066Z,0.00
2023-05-14T00:08:54.058Z,0.00
2023-05-14T00:09:54.060Z,0.00
2023-05-14T00:10:54.062Z,0.00
2023-05-14T00:11:54.030Z,0.00
2023-05-14T00:12:54.023Z,0.00
2023-05-14T00:13:54.014Z,0.00
2023-05-14T00:14:54.021Z,0.00
2023-05-14T00:15:54.030Z,0.00
2023-05-14T00:16:53.984Z,0.00
2023-05-14T00:17:54.010Z,0.00
2023-05-14T00:18:54.026Z,0.00
2023-05-14T00:19:53.956Z,0.00
2023-05-14T00:20:53.932Z,0.00
2023-05-14T00:21:53.919Z,0.00
2023-05-14T00:22:53.918Z,0.00
2023-05-14T00:23:53.902Z,0.00
2023-05-14T00:24:53.902Z,0.00
2023-05-14T00:25:53.886Z,0.00
2023-05-14T00:26:53.875Z,0.00
2023-05-14T00:27:53.866Z,0.00
2023-05-14T00:28:53.852Z,0.00
2023-05-14T00:29:53.856Z,0.00
2023-05-14T00:30:53.860Z,0.00
2023-05-14T00:31:53.891Z,0.00
2023-05-14T00:32:53.812Z,0.00
2023-05-14T00:33:53.817Z,0.00
2023-05-14T00:34:53.791Z,0.00
2023-05-14T00:35:53.771Z,0.00
2023-05-14T00:36:53.768Z,0.00
2023-05-14T00:37:53.757Z,0.00
2023-05-14T00:38:53.757Z,0.00
2023-05-14T00:39:53.731Z,0.00
2023-05-14T00:40:53.727Z,0.00
2023-05-14T00:41:53.733Z,0.00
2023-05-14T00:42:53.711Z,0.00
2023-05-14T00:43:53.698Z,0.00
2023-05-14T00:44:53.682Z,0.00
2023-05-14T00:45:53.697Z,0.00
2023-05-14T00:46:53.696Z,0.00
2023-05-14T00:47:53.730Z,0.00
2023-05-14T00:48:53.658Z,0.00
2023-05-14T00:49:53.639Z,0.00
2023-05-14T00:50:53.619Z,0.00
2023-05-14T00:51:53.598Z,0.00
2023-05-14T00:52:53.610Z,0.00
2023-05-14T00:53:53.574Z,0.00
2023-05-14T00:54:53.568Z,0.00
2023-05-14T00:55:53.562Z,0.00
2023-05-14T00:56:53.545Z,0.00
2023-05-14T00:57:53.553Z,0.00
2023-05-14T00:58:53.524Z,0.00
2023-05-14T00:59:53.615Z,0.00
2023-05-14T01:00:53.541Z,0.00
2023-05-14T01:01:53.500Z,0.00
2023-05-14T01:02:53.594Z,0.00
2023-05-14T01:03:53.626Z,0.00
2023-05-14T01:04:53.460Z,0.00
2023-05-14T01:05:53.447Z,0.00
2023-05-14T01:06:53.449Z,0.00
2023-05-14T01:07:53.435Z,0.00
2023-05-14T01:08:53.429Z,0.00
2023-05-14T01:09:53.405Z,0.00
2023-05-14T01:10:53.392Z,0.00
2023-05-14T01:11:53.393Z,0.00
2023-05-14T01:12:53.375Z,0.00
2023-05-14T01:13:53.359Z,0.00
2023-05-14T01:14:53.345Z,0.00
2023-05-14T01:15:53.332Z,0.00
2023-05-14T01:16:53.364Z,0.00
2023-05-14T01:17:53.351Z,0.00
2023-05-14T01:18:53.345Z,0.00
2023-05-14T01:19:53.300Z,0.00
2023-05-14T01:20:53.300Z,0.00
2023-05-14T01:21:53.289Z,0.00
2023-05-14T01:22:53.261Z,0.00
2023-05-14T01:23:53.253Z,0.00
2023-05-14T01:24:53.249Z,0.00
2023-05-14T01:25:53.248Z,0.00
2023-05-14T01:26:53.227Z,0.00
2023-05-14T01:27:53.217Z,0.00
2023-05-14T01:28:53.192Z,0.00
2023-05-14T01:29:53.183Z,0.00
2023-05-14T01:30:53.196Z,0.00
2023-05-14T01:31:53.166Z,0.00
2023-05-14T01:32:53.190Z,0.00
2023-05-14T01:33:53.138Z,0.00
2023-05-14T01:34:53.144Z,0.00
2023-05-14T01:35:53.118Z,0.00
2023-05-14T01:36:53.108Z,0.00
2023-05-14T01:37:53.090Z,0.00
2023-05-14T01:38:53.106Z,0.00
2023-05-14T01:39:53.089Z,0.00
2023-05-14T01:40:53.093Z,0.00
2023-05-14T01:41:53.044Z,0.00
2023-05-14T01:42:53.101Z,0.00
2023-05-14T01:43:53.020Z,0.00
2023-05-14T01:44:53.022Z,0.00
2023-05-14T01:45:53.038Z,0.00
2023-05-14T01:46:52.999Z,0.00
2023-05-14T01:47:53.015Z,0.00
2023-05-14T01:48:52.981Z,0.00
2023-05-14T01:49:52.980Z,0.00
2023-05-14T01:50:52.948Z,0.00
2023-05-14T01:51:52.940Z,0.00
2023-05-14T01:52:52.927Z,0.00
2023-05-14T01:53:52.937Z,0.00
2023-05-14T01:54:52.915Z,0.00
2023-05-14T01:55:52.900Z,0.00
2023-05-14T01:56:52.882Z,0.00
2023-05-14T01:57:52.875Z,0.00
2023-05-14T01:58:52.878Z,0.00
2023-05-14T01:59:52.848Z,0.00
2023-05-14T02:00:52.834Z,0.00
2023-05-14T02:01:52.909Z,0.00
2023-05-14T02:02:52.829Z,0.00
2023-05-14T02:03:52.870Z,0.00
2023-05-14T02:04:52.789Z,0.00
2023-05-14T02:05:52.799Z,0.00
2023-05-14T02:06:52.773Z,0.00
2023-05-14T02:07:52.794Z,0.00
2023-05-14T02:08:52.761Z,0.00
2023-05-14T02:09:52.740Z,0.00
2023-05-14T02:10:52.734Z,0.00
2023-05-14T02:11:52.725Z,0.00
2023-05-14T02:12:52.716Z,0.00
2023-05-14T02:13:52.703Z,0.00
2023-05-14T02:14:52.694Z,0.00
2023-05-14T02:15:52.715Z,0.00
2023-05-14T02:16:52.667Z,0.00
2023-05-14T02:17:52.718Z,0.00
2023-05-14T02:18:52.685Z,0.00
2023-05-14T02:19:52.636Z,0.00
2023-05-14T02:20:52.641Z,0.00
2023-05-14T02:21:52.630Z,0.00
2023-05-14T02:22:52.621Z,0.00
2023-05-14T02:23:52.591Z,0.00
2023-05-14T02:24:52.595Z,0.00
2023-05-14T02:25:52.564Z,0.00
2023-05-14T02:26:52.568Z,0.00
2023-05-14T02:27:52.547Z,0.00
2023-05-14T02:28:52.542Z,0.00
2023-05-14T02:29:52.524Z,0.00
2023-05-14T02:30:52.513Z,0.00
2023-05-14T02:31:52.552Z,0.00
2023-05-14T02:32:52.571Z,0.00
2023-05-14T02:33:52.486Z,0.00
2023-05-14T02:34:52.479Z,0.00
2023-05-14T02:35:52.468Z,0.00
2023-05-14T02:36:52.470Z,0.00
2023-05-14T02:37:52.443Z,0.00
2023-05-14T02:38:52.420Z,0.00
2023-05-14T02:39:52.424Z,0.00
2023-05-14T02:40:52.448Z,0.00
2023-05-14T02:41:52.407Z,0.00
2023-05-14T02:42:52.382Z,0.00
2023-05-14T02:43:52.370Z,0.00
2023-05-14T02:44:52.381Z,0.00
2023-05-14T02:45:52.371Z,0.00
2023-05-14T02:46:52.378Z,0.00
2023-05-14T02:47:52.387Z,0.00
2023-05-14T02:48:52.320Z,0.00
2023-05-14T02:49:52.317Z,0.00
2023-05-14T02:50:52.310Z,0.00
2023-05-14T02:51:52.284Z,0.00
2023-05-14T02:52:52.310Z,0.00
2023-05-14T02:53:52.274Z,0.00
2023-05-14T02:54:52.257Z,0.00
2023-05-14T02:55:52.258Z,0.00
2023-05-14T02:56:52.230Z,0.00
2023-05-14T02:57:52.222Z,0.00
2023-05-14T02:58:52.215Z,0.00
2023-05-14T02:59:52.195Z,0.00
2023-05-14T03:00:52.211Z,0.00
2023-05-14T03:01:52.208Z,0.00
2023-05-14T03:02:52.218Z,0.00
2023-05-14T03:03:52.153Z,0.00
2023-05-14T03:04:52.168Z,4.00
2023-05-14T03:05:52.176Z,4.00
2023-05-14T03:06:52.128Z,0.00
2023-05-14T03:07:52.114Z,0.00
2023-05-14T03:08:52.100Z,4.00
2023-05-14T03:09:52.122Z,4.00
2023-05-14T03:10:52.091Z,4.00
2023-05-14T03:11:52.070Z,4.00
2023-05-14T03:12:52.083Z,8.00
2023-05-14T03:13:52.052Z,4.00
2023-05-14T03:14:52.052Z,8.00
2023-05-14T03:15:52.039Z,8.00
2023-05-14T03:16:52.034Z,8.00
2023-05-14T03:17:52.057Z,8.00
2023-05-14T03:18:52.063Z,8.00
2023-05-14T03:19:51.997Z,8.00
2023-05-14T03:20:51.965Z,12.00
2023-05-14T03:21:51.964Z,16.00
2023-05-14T03:22:51.945Z,16.00
2023-05-14T03:23:51.945Z,16.00
2023-05-14T03:24:51.918Z,20.00
2023-05-14T03:25:51.917Z,20.00
2023-05-14T03:26:51.915Z,20.00
2023-05-14T03:27:51.892Z,24.00
2023-05-14T03:28:51.905Z,28.00
2023-05-14T03:29:51.873Z,28.00
2023-05-14T03:30:51.934Z,32.00
2023-05-14T03:31:51.850Z,36.00
2023-05-14T03:32:51.938Z,40.00
2023-05-14T03:33:51.846Z,40.00
2023-05-14T03:34:51.823Z,44.00
2023-05-14T03:35:51.850Z,44.00
2023-05-14T03:36:51.804Z,48.00
2023-05-14T03:37:51.824Z,52.00
2023-05-14T03:38:51.788Z,56.00
2023-05-14T03:39:51.766Z,60.00
2023-05-14T03:40:51.791Z,64.00
2023-05-14T03:41:51.746Z,68.00
2023-05-14T03:42:51.734Z,72.00
2023-05-14T03:43:51.716Z,76.00
2023-05-14T03:44:51.714Z,80.00
2023-05-14T03:45:51.703Z,84.00
2023-05-14T03:46:51.684Z,92.00
2023-05-14T03:47:51.782Z,100.00
2023-05-14T03:48:51.742Z,104.00
2023-05-14T03:49:51.672Z,112.00
2023-05-14T03:50:51.642Z,120.00
2023-05-14T03:51:51.669Z,132.00
2023-05-14T03:52:51.635Z,140.00
2023-05-14T03:53:51.644Z,152.00
2023-05-14T03:54:51.604Z,164.00
2023-05-14T03:55:51.585Z,168.00
2023-05-14T03:56:51.591Z,180.00
2023-05-14T03:57:51.577Z,192.00
2023-05-14T03:58:51.555Z,204.00
2023-05-14T03:59:51.543Z,216.00
2023-05-14T04:00:51.536Z,228.00
2023-05-14T04:01:51.538Z,240.00
2023-05-14T04:02:51.691Z,252.00
2023-05-14T04:03:51.648Z,264.00
2023-05-14T04:04:51.616Z,276.00
2023-05-14T04:05:51.480Z,288.00
2023-05-14T04:06:51.492Z,296.00
2023-05-14T04:07:51.458Z,300.00
2023-05-14T04:08:51.472Z,308.00
2023-05-14T04:09:51.441Z,324.00
2023-05-14T04:10:51.444Z,336.00
2023-05-14T04:11:51.434Z,344.00
2023-05-14T04:12:51.403Z,356.00
2023-05-14T04:13:51.394Z,364.00
2023-05-14T04:14:51.387Z,380.00
2023-05-14T04:15:51.500Z,392.00
2023-05-14T04:16:51.421Z,400.00
2023-05-14T04:17:51.387Z,412.00
2023-05-14T04:18:51.402Z,424.00
2023-05-14T04:19:51.400Z,436.00
2023-05-14T04:20:51.367Z,440.00
2023-05-14T04:21:51.299Z,420.00
2023-05-14T04:22:51.301Z,404.00
2023-05-14T04:23:51.282Z,408.00
2023-05-14T04:24:51.269Z,412.00
2023-05-14T04:25:51.374Z,424.00
2023-05-14T04:26:51.266Z,428.00
2023-05-14T04:27:51.251Z,436.00
2023-05-14T04:28:51.231Z,448.00
2023-05-14T04:29:51.230Z,456.00
2023-05-14T04:30:51.225Z,468.00
2023-05-14T04:31:51.259Z,472.00
2023-05-14T04:32:51.213Z,484.00
2023-05-14T04:33:51.176Z,492.00
2023-05-14T04:34:51.169Z,500.00
2023-05-14T04:35:51.141Z,508.00
2023-05-14T04:36:51.138Z,512.00
2023-05-14T04:37:51.132Z,520.00
2023-05-14T04:38:51.115Z,524.00
2023-05-14T04:39:51.116Z,532.00
2023-05-14T04:40:51.096Z,540.00
2023-05-14T04:41:51.084Z,544.00
2023-05-14T04:42:51.084Z,556.00
2023-05-14T04:43:51.063Z,560.00
2023-05-14T04:44:51.057Z,572.00
2023-05-14T04:45:51.085Z,584.00
2023-05-14T04:46:51.046Z,596.00
2023-05-14T04:47:51.083Z,608.00
2023-05-14T04:48:51.019Z,616.00
2023-05-14T04:49:51.001Z,628.00
2023-05-14T04:50:50.998Z,636.00
2023-05-14T04:51:50.976Z,644.00
2023-05-14T04:52:50.966Z,656.00
2023-05-14T04:53:50.970Z,664.00
2023-05-14T04:54:50.967Z,680.00
2023-05-14T04:55:50.940Z,692.00
2023-05-14T04:56:50.926Z,704.00
2023-05-14T04:57:50.901Z,716.00
2023-05-14T04:58:50.906Z,728.00
2023-05-14T04:59:50.885Z,740.00
2023-05-14T05:00:50.894Z,756.00
2023-05-14T05:01:50.866Z,768.00
2023-05-14T05:02:50.922Z,784.00
2023-05-14T05:03:50.899Z,800.00
2023-05-14T05:04:50.839Z,816.00
2023-05-14T05:05:50.820Z,836.00
2023-05-14T05:06:50.816Z,856.00
2023-05-14T05:07:50.822Z,872.00
2023-05-14T05:08:50.804Z,888.00
2023-05-14T05:09:50.783Z,908.00
2023-05-14T05:10:50.786Z,924.00
2023-05-14T05:11:50.760Z,944.00
2023-05-14T05:12:50.771Z,960.00
2023-05-14T05:13:50.753Z,980.00
2023-05-14T05:14:50.728Z,996.00
2023-05-14T05:15:50.737Z,1020.00
2023-05-14T05:16:50.710Z,1036.00
2023-05-14T05:17:50.741Z,1056.00
2023-05-14T05:18:50.766Z,1076.00
2023-05-14T05:19:50.673Z,1096.00
2023-05-14T05:20:50.672Z,1116.00
2023-05-14T05:21:50.671Z,1136.00
2023-05-14T05:22:50.668Z,1160.00
2023-05-14T05:23:50.637Z,1184.00
2023-05-14T05:24:50.632Z,1212.00
2023-05-14T05:25:50.620Z,1236.00
2023-05-14T05:26:50.605Z,1260.00
2023-05-14T05:27:50.603Z,1292.00
2023-05-14T05:28:50.587Z,1324.00
2023-05-14T05:29:50.583Z,1364.00
2023-05-14T05:30:50.574Z,1396.00
2023-05-14T05:31:50.615Z,1432.00
2023-05-14T05:32:50.583Z,1472.00
2023-05-14T05:33:50.531Z,1508.00
2023-05-14T05:34:50.540Z,1548.00
2023-05-14T05:35:50.515Z,1584.00
2023-05-14T05:36:50.516Z,1640.00
2023-05-14T05:37:50.507Z,1692.00
2023-05-14T05:38:50.477Z,1704.00
2023-05-14T05:39:50.471Z,1720.00
2023-05-14T05:40:50.455Z,1748.00
2023-05-14T05:41:50.454Z,1780.00
2023-05-14T05:42:50.435Z,1808.00
2023-05-14T05:43:50.415Z,1844.00
2023-05-14T05:44:50.420Z,1884.00
2023-05-14T05:45:50.398Z,1936.00
2023-05-14T05:46:50.550Z,1988.00
2023-05-14T05:47:50.424Z,2036.00
2023-05-14T05:48:50.384Z,2076.00
2023-05-14T05:49:50.352Z,2120.00
2023-05-14T05:50:50.534Z,2152.00
2023-05-14T05:51:50.344Z,2188.00
2023-05-14T05:52:50.319Z,2232.00
2023-05-14T05:54:44.311Z,2284.00
2023-05-14T05:54:51.319Z,2336.00
2023-05-14T05:55:50.305Z,2388.00
2023-05-14T05:56:50.280Z,2448.00
2023-05-14T05:57:50.271Z,2500.00
2023-05-14T05:58:50.268Z,2548.00
2023-05-14T05:59:50.248Z,2620.00
2023-05-14T06:00:50.257Z,2660.00
2023-05-14T06:01:50.260Z,2720.00
2023-05-14T06:02:50.253Z,2812.00
2023-05-14T06:03:50.215Z,2864.00
2023-05-14T06:04:50.216Z,3056.00
2023-05-14T06:05:50.222Z,2960.00
2023-05-14T06:06:50.182Z,3016.00
2023-05-14T06:07:50.167Z,3076.00
2023-05-14T06:08:50.161Z,3156.00
2023-05-14T06:09:50.153Z,3240.00
2023-05-14T06:10:50.165Z,3328.00
2023-05-14T06:11:50.129Z,3376.00
2023-05-14T06:12:50.128Z,3448.00
2023-05-14T06:13:50.103Z,3580.00
2023-05-14T06:14:50.089Z,4104.00
2023-05-14T06:15:50.087Z,4268.00
2023-05-14T06:16:50.124Z,4664.00
2023-05-14T06:17:50.094Z,4456.00
2023-05-14T06:18:50.103Z,4612.00
2023-05-14T06:19:50.056Z,4488.00
2023-05-14T06:20:50.044Z,4636.00
2023-05-14T06:21:50.038Z,4980.00
2023-05-14T06:22:50.011Z,6592.00
2023-05-14T06:23:50.005Z,5716.00
2023-05-14T06:24:50.008Z,5220.00
2023-05-14T06:25:50.770Z,5032.00
2023-05-14T06:26:49.972Z,6292.00
2023-05-14T06:27:49.974Z,6984.00
2023-05-14T06:28:49.949Z,5312.00
2023-05-14T06:29:49.946Z,6220.00
2023-05-14T06:30:49.932Z,5984.00
2023-05-14T06:31:49.959Z,6380.00
2023-05-14T06:32:49.949Z,7428.00
2023-05-14T06:33:49.909Z,6600.00
2023-05-14T06:34:49.925Z,5036.00
2023-05-14T06:35:49.878Z,5248.00
2023-05-14T06:36:49.875Z,5192.00
2023-05-14T06:37:49.847Z,5916.00
2023-05-14T06:38:49.852Z,6940.00
2023-05-14T06:39:49.870Z,5236.00
2023-05-14T06:40:49.824Z,4208.00
2023-05-14T06:41:49.809Z,4488.00
2023-05-14T06:42:49.803Z,5224.00
2023-05-14T06:43:49.806Z,5852.00
2023-05-14T06:44:49.780Z,5124.00
2023-05-14T06:45:49.773Z,4768.00
2023-05-14T06:46:49.767Z,4408.00
2023-05-14T06:47:49.902Z,4772.00
2023-05-14T06:48:49.782Z,5044.00
2023-05-14T06:49:49.729Z,5936.00
2023-05-14T06:50:49.735Z,6128.00
2023-05-14T06:51:49.711Z,6132.00
2023-05-14T06:52:49.719Z,5360.00
2023-05-14T06:53:49.694Z,5652.00
2023-05-14T06:54:49.683Z,5960.00
2023-05-14T06:55:49.668Z,5648.00
2023-05-14T06:56:49.662Z,5240.00
2023-05-14T06:57:49.654Z,4896.00
2023-05-14T06:58:49.640Z,5328.00
2023-05-14T06:59:49.630Z,5000.00
2023-05-14T07:00:49.614Z,5028.00
2023-05-14T07:01:49.677Z,6452.00
2023-05-14T07:02:49.667Z,6076.00
2023-05-14T07:03:49.638Z,6372.00
2023-05-14T07:04:49.671Z,5812.00
2023-05-14T07:05:49.565Z,5224.00
2023-05-14T07:06:49.569Z,5988.00
2023-05-14T07:07:49.554Z,5916.00
2023-05-14T07:08:50.389Z,6140.00
2023-05-14T07:09:49.529Z,6096.00
2023-05-14T07:10:49.519Z,6064.00
2023-05-14T07:11:49.512Z,5984.00
2023-05-14T07:12:49.500Z,6028.00
2023-05-14T07:13:49.488Z,6064.00
2023-05-14T07:14:49.473Z,6016.00
2023-05-14T07:15:49.462Z,5956.00
2023-05-14T07:16:49.489Z,6040.00
2023-05-14T07:17:49.545Z,6036.00
2023-05-14T07:18:49.476Z,6020.00
2023-05-14T07:19:49.420Z,6032.00
2023-05-14T07:20:49.410Z,6108.00
2023-05-14T07:21:49.410Z,6364.00
2023-05-14T07:22:49.392Z,6252.00
2023-05-14T07:23:49.385Z,6200.00
2023-05-14T07:24:49.392Z,6272.00
2023-05-14T07:25:49.368Z,6256.00
2023-05-14T07:26:49.376Z,6192.00
2023-05-14T07:27:49.345Z,6224.00
2023-05-14T07:28:49.337Z,6372.00
2023-05-14T07:29:49.316Z,6496.00
2023-05-14T07:30:49.322Z,6644.00
2023-05-14T07:31:49.328Z,6612.00
2023-05-14T07:32:49.349Z,6500.00
2023-05-14T07:33:49.276Z,6484.00
2023-05-14T07:34:49.272Z,6512.00
2023-05-14T07:35:49.274Z,6624.00
2023-05-14T07:36:49.246Z,6648.00
2023-05-14T07:37:49.234Z,6536.00
2023-05-14T07:38:49.233Z,6624.00
2023-05-14T07:39:49.232Z,6592.00
2023-05-14T07:40:49.245Z,6552.00
2023-05-14T07:41:49.195Z,6572.00
2023-05-14T07:42:49.210Z,6696.00
2023-05-14T07:43:49.175Z,6880.00
2023-05-14T07:44:49.182Z,6900.00
2023-05-14T07:45:49.157Z,3752.00
2023-05-14T07:46:49.158Z,3744.00
2023-05-14T07:47:49.200Z,7096.00
2023-05-14T07:48:49.125Z,5216.00
2023-05-14T07:49:49.129Z,5656.00
2023-05-14T07:50:49.111Z,5888.00
2023-05-14T07:51:49.085Z,6876.00
2023-05-14T07:52:49.093Z,6716.00
2023-05-14T07:53:49.085Z,6488.00
2023-05-14T07:54:50.574Z,6488.00
2023-05-14T07:55:49.067Z,6536.00
2023-05-14T07:56:49.043Z,6532.00
2023-05-14T07:57:49.038Z,6632.00
2023-05-14T07:58:49.046Z,6732.00
2023-05-14T07:59:49.025Z,6764.00
2023-05-14T08:00:49.008Z,6752.00
2023-05-14T08:01:49.022Z,6656.00
2023-05-14T08:02:49.257Z,6584.00
2023-05-14T08:03:49.128Z,6520.00
2023-05-14T08:04:48.964Z,6252.00
2023-05-14T08:05:48.964Z,4456.00
2023-05-14T08:06:48.951Z,6632.00
2023-05-14T08:07:48.942Z,6484.00
2023-05-14T08:08:48.962Z,6712.00
2023-05-14T08:09:48.921Z,6620.00
2023-05-14T08:10:48.928Z,5600.00
2023-05-14T08:11:48.897Z,4012.00
2023-05-14T08:12:48.906Z,5040.00
2023-05-14T08:13:48.892Z,3896.00
2023-05-14T08:14:48.882Z,4468.00
2023-05-14T08:15:48.866Z,7152.00
2023-05-14T08:16:48.942Z,5388.00
2023-05-14T08:17:48.901Z,7136.00
2023-05-14T08:18:48.871Z,7264.00
2023-05-14T08:19:48.830Z,7160.00
2023-05-14T08:20:48.811Z,7148.00
2023-05-14T08:21:48.808Z,7296.00
2023-05-14T08:22:48.804Z,7220.00
2023-05-14T08:23:48.787Z,7228.00
2023-05-14T08:24:48.856Z,7284.00
2023-05-14T08:25:48.785Z,7380.00
2023-05-14T08:26:48.756Z,7344.00
2023-05-14T08:27:48.757Z,7264.00
2023-05-14T08:28:48.731Z,7396.00
2023-05-14T08:29:48.723Z,7120.00
2023-05-14T08:30:48.750Z,7224.00
2023-05-14T08:31:48.718Z,7436.00
2023-05-14T08:32:48.709Z,7320.00
2023-05-14T08:33:48.684Z,7284.00
2023-05-14T08:34:48.668Z,7424.00
2023-05-14T08:35:48.664Z,7432.00
2023-05-14T08:36:48.658Z,7228.00
2023-05-14T08:37:48.649Z,7296.00
2023-05-14T08:38:48.630Z,7260.00
2023-05-14T08:39:48.657Z,7288.00
2023-05-14T08:40:48.609Z,5904.00
2023-05-14T08:41:48.756Z,7156.00
2023-05-14T08:42:48.597Z,5856.00
2023-05-14T08:43:48.580Z,5468.00
2023-05-14T08:44:48.575Z,6800.00
2023-05-14T08:45:48.570Z,7376.00
2023-05-14T08:46:48.556Z,7416.00
2023-05-14T08:47:48.629Z,4756.00
2023-05-14T08:48:48.588Z,5148.00
2023-05-14T08:49:48.522Z,6240.00
2023-05-14T08:50:48.514Z,7440.00
2023-05-14T08:51:48.567Z,7640.00
2023-05-14T08:52:48.490Z,7580.00
2023-05-14T08:53:48.483Z,7512.00
2023-05-14T08:54:48.463Z,7520.00
2023-05-14T08:55:48.472Z,7628.00
2023-05-14T08:56:50.496Z,7716.00
2023-05-14T08:57:48.449Z,7728.00
2023-05-14T08:58:48.429Z,7640.00
2023-05-14T08:59:48.449Z,7588.00
2023-05-14T09:00:48.429Z,7676.00
2023-05-14T09:01:48.462Z,7704.00
2023-05-14T09:02:48.407Z,7776.00
2023-05-14T09:03:48.440Z,7864.00
2023-05-14T09:04:48.378Z,7884.00
2023-05-14T09:05:48.365Z,7888.00
2023-05-14T09:06:48.347Z,7788.00
2023-05-14T09:07:48.346Z,7848.00
2023-05-14T09:08:48.332Z,7944.00
2023-05-14T09:09:48.334Z,8028.00
2023-05-14T09:10:48.314Z,7840.00
2023-05-14T09:11:48.306Z,7780.00
2023-05-14T09:12:48.293Z,7868.00
2023-05-14T09:13:48.283Z,7788.00
2023-05-14T09:14:48.282Z,6268.00
2023-05-14T09:15:48.266Z,5024.00
2023-05-14T09:16:48.326Z,4960.00
2023-05-14T09:17:48.290Z,5024.00
2023-05-14T09:18:48.477Z,7368.00
2023-05-14T09:19:48.237Z,5428.00
2023-05-14T09:20:48.210Z,5180.00
2023-05-14T09:21:48.206Z,5476.00
2023-05-14T09:22:48.188Z,7092.00
2023-05-14T09:23:48.191Z,7928.00
2023-05-14T09:24:48.164Z,8144.00
2023-05-14T09:25:48.153Z,8160.00
2023-05-14T09:26:48.144Z,8216.00
2023-05-14T09:27:48.136Z,7528.00
2023-05-14T09:28:48.137Z,6636.00
2023-05-14T09:29:48.123Z,6872.00
2023-05-14T09:30:48.101Z,8524.00
2023-05-14T09:31:48.213Z,8640.00
2023-05-14T09:32:48.103Z,8716.00
2023-05-14T09:33:48.085Z,6512.00
2023-05-14T09:34:48.065Z,6484.00
2023-05-14T09:35:48.057Z,8596.00
2023-05-14T09:36:48.041Z,7956.00
2023-05-14T09:37:48.037Z,8608.00
2023-05-14T09:38:48.033Z,6416.00
2023-05-14T09:39:48.019Z,9152.00
2023-05-14T09:40:48.005Z,6688.00
2023-05-14T09:41:47.997Z,7820.00
2023-05-14T09:42:47.984Z,8688.00
2023-05-14T09:43:47.985Z,8652.00
2023-05-14T09:44:47.988Z,7304.00
2023-05-14T09:45:47.956Z,8632.00
2023-05-14T09:46:47.975Z,8584.00
2023-05-14T09:47:48.032Z,8724.00
2023-05-14T09:48:47.939Z,8436.00
2023-05-14T09:49:47.908Z,8500.00
2023-05-14T09:50:47.909Z,8548.00
2023-05-14T09:51:47.890Z,8628.00
2023-05-14T09:52:47.874Z,8608.00
2023-05-14T09:53:47.880Z,8560.00
2023-05-14T09:54:47.855Z,7900.00
2023-05-14T09:55:47.848Z,6648.00
2023-05-14T09:56:47.835Z,6408.00
2023-05-14T09:57:47.825Z,6424.00
2023-05-14T09:58:47.825Z,6388.00
2023-05-14T09:59:47.805Z,8864.00
2023-05-14T10:00:47.844Z,9200.00
2023-05-14T10:01:47.788Z,9436.00
2023-05-14T10:02:47.812Z,7352.00
2023-05-14T10:03:47.784Z,9308.00
2023-05-14T10:04:47.785Z,7292.00
2023-05-14T10:05:47.744Z,9612.00
2023-05-14T10:06:47.738Z,9588.00
2023-05-14T10:07:47.742Z,9400.00
2023-05-14T10:08:47.719Z,9356.00
2023-05-14T10:09:47.713Z,8808.00
2023-05-14T10:10:47.692Z,9328.00
2023-05-14T10:11:47.684Z,9204.00
2023-05-14T10:12:47.679Z,6800.00
2023-05-14T10:13:47.663Z,6552.00
2023-05-14T10:14:47.766Z,6360.00
2023-05-14T10:15:47.647Z,6296.00
2023-05-14T10:16:47.666Z,6524.00
2023-05-14T10:17:47.653Z,8292.00
2023-05-14T10:18:47.664Z,9276.00
2023-05-14T10:19:47.606Z,6880.00
2023-05-14T10:20:47.587Z,8696.00
2023-05-14T10:21:47.587Z,8396.00
2023-05-14T10:22:47.593Z,7668.00
2023-05-14T10:23:47.570Z,8336.00
2023-05-14T10:24:47.552Z,6908.00
2023-05-14T10:25:47.541Z,6668.00
2023-05-14T10:26:47.538Z,5904.00
2023-05-14T10:27:47.519Z,8060.00
2023-05-14T10:28:47.509Z,8336.00
2023-05-14T10:29:47.507Z,8360.00
2023-05-14T10:30:47.544Z,6576.00
2023-05-14T10:31:47.711Z,6504.00
2023-05-14T10:32:47.494Z,6332.00
2023-05-14T10:33:47.467Z,6328.00
2023-05-14T10:34:47.445Z,6340.00
2023-05-14T10:35:47.438Z,6436.00
2023-05-14T10:36:47.463Z,7120.00
2023-05-14T10:37:47.421Z,8448.00
2023-05-14T10:38:47.443Z,8080.00
2023-05-14T10:39:47.406Z,7788.00
2023-05-14T10:40:47.394Z,5912.00
2023-05-14T10:41:47.388Z,5580.00
2023-05-14T10:42:47.383Z,5516.00
2023-05-14T10:43:47.344Z,5552.00
2023-05-14T10:44:47.332Z,5552.00
2023-05-14T10:45:47.343Z,5712.00
2023-05-14T10:46:47.333Z,6080.00
2023-05-14T10:47:47.362Z,8156.00
2023-05-14T10:48:47.287Z,8584.00
2023-05-14T10:49:47.285Z,8700.00
2023-05-14T10:50:47.327Z,8904.00
2023-05-14T10:51:47.270Z,8816.00
2023-05-14T10:52:47.247Z,7132.00
2023-05-14T10:53:47.237Z,6456.00
2023-05-14T10:54:47.241Z,6364.00
2023-05-14T10:55:47.227Z,6664.00
2023-05-14T10:56:47.205Z,8300.00
2023-05-14T10:57:47.216Z,8308.00
2023-05-14T10:58:47.192Z,7664.00
2023-05-14T10:59:47.195Z,8540.00
2023-05-14T11:00:47.185Z,8064.00
2023-05-14T11:01:47.168Z,6972.00
2023-05-14T11:02:47.295Z,7112.00
2023-05-14T11:03:47.258Z,7196.00
2023-05-14T11:04:47.150Z,7372.00
2023-05-14T11:05:47.109Z,7508.00
2023-05-14T11:06:47.116Z,7516.00
2023-05-14T11:07:47.102Z,7448.00
2023-05-14T11:08:47.081Z,7200.00
2023-05-14T11:09:47.095Z,7684.00
2023-05-14T11:10:47.096Z,8644.00
2023-05-14T11:11:47.046Z,8548.00
2023-05-14T11:12:47.034Z,8548.00
2023-05-14T11:13:47.042Z,6828.00
2023-05-14T11:14:47.032Z,6652.00
2023-05-14T11:15:47.010Z,6612.00
2023-05-14T11:16:47.040Z,6744.00
2023-05-14T11:17:47.047Z,7748.00
2023-05-14T11:18:47.050Z,7264.00
2023-05-14T11:19:47.929Z,7080.00
2023-05-14T11:20:46.954Z,8080.00
2023-05-14T11:21:47.041Z,8384.00
2023-05-14T11:22:46.948Z,7804.00
2023-05-14T11:23:46.946Z,6452.00
2023-05-14T11:24:46.919Z,7792.00
2023-05-14T11:25:46.920Z,6380.00
2023-05-14T11:26:46.889Z,6284.00
2023-05-14T11:27:46.920Z,7760.00
2023-05-14T11:28:46.878Z,7964.00
2023-05-14T11:29:46.854Z,7996.00
2023-05-14T11:30:46.841Z,7496.00
2023-05-14T11:31:46.874Z,6684.00
2023-05-14T11:32:46.892Z,6924.00
2023-05-14T11:33:46.811Z,6044.00
2023-05-14T11:34:46.818Z,5748.00
2023-05-14T11:35:46.790Z,5632.00
2023-05-14T11:36:46.775Z,6168.00
2023-05-14T11:37:46.779Z,5764.00
2023-05-14T11:38:46.764Z,6484.00
2023-05-14T11:39:46.749Z,6988.00
2023-05-14T11:40:46.733Z,6896.00
2023-05-14T11:41:46.736Z,5512.00
2023-05-14T11:42:46.728Z,5260.00
2023-05-14T11:43:46.710Z,5168.00
2023-05-14T11:44:46.690Z,5136.00
2023-05-14T11:45:46.708Z,5188.00
2023-05-14T11:46:46.678Z,5216.00
2023-05-14T11:47:46.806Z,6676.00
2023-05-14T11:48:46.655Z,6728.00
2023-05-14T11:49:46.640Z,6632.00
2023-05-14T11:50:46.633Z,6560.00
2023-05-14T11:51:46.645Z,6504.00
2023-05-14T11:52:46.615Z,4952.00
2023-05-14T11:53:46.609Z,4944.00
2023-05-14T11:54:46.689Z,4828.00
2023-05-14T11:55:46.588Z,4692.00
2023-05-14T11:56:46.578Z,4568.00
2023-05-14T11:57:46.598Z,4592.00
2023-05-14T11:58:46.547Z,4740.00
2023-05-14T11:59:46.536Z,4668.00
2023-05-14T12:00:46.551Z,4616.00
2023-05-14T12:01:46.853Z,4640.00
2023-05-14T12:02:47.783Z,4744.00
2023-05-14T12:03:47.794Z,4868.00
2023-05-14T12:04:47.722Z,4992.00
2023-05-14T12:05:47.618Z,5120.00
2023-05-14T12:06:47.621Z,5252.00
2023-05-14T12:07:47.599Z,5328.00
2023-05-14T12:08:47.588Z,5464.00
2023-05-14T12:09:47.641Z,5656.00
2023-05-14T12:10:48.118Z,5880.00
2023-05-14T12:11:47.570Z,5980.00
2023-05-14T12:12:47.531Z,6064.00
2023-05-14T12:13:47.540Z,6156.00
2023-05-14T12:14:47.536Z,6200.00
2023-05-14T12:15:47.525Z,6112.00
2023-05-14T12:16:47.535Z,5768.00
2023-05-14T12:17:47.502Z,5348.00
2023-05-14T12:18:47.511Z,4928.00
2023-05-14T12:19:47.505Z,4560.00
2023-05-14T12:20:47.515Z,4220.00
2023-05-14T12:21:47.453Z,3804.00
2023-05-14T12:22:47.436Z,3372.00
2023-05-14T12:23:47.432Z,2992.00
2023-05-14T12:24:47.447Z,2688.00
2023-05-14T12:25:47.420Z,2428.00
2023-05-14T12:26:47.441Z,2248.00
2023-05-14T12:27:47.406Z,2128.00
2023-05-14T12:28:47.404Z,2080.00